createdAt,value
2023-05-05T00:00:57.383Z,2.30
2023-05-05T00:03:24.895Z,3.67
2023-05-05T00:05:52.097Z,2.90
2023-05-05T00:08:18.561Z,2.85
2023-05-05T00:10:45.412Z,3.05
2023-05-05T00:13:11.929Z,2.97
2023-05-05T00:15:38.375Z,3.17
2023-05-05T00:18:05.043Z,3.40
2023-05-05T00:20:31.568Z,2.60
2023-05-05T00:22:58.159Z,2.65
2023-05-05T00:25:24.615Z,4.68
2023-05-05T00:27:51.016Z,3.88
2023-05-05T00:30:18.206Z,3.15
2023-05-05T00:32:44.700Z,4.80
2023-05-05T00:35:11.148Z,3.33
2023-05-05T00:37:37.592Z,4.30
2023-05-05T00:40:04.215Z,2.55
2023-05-05T00:42:41.172Z,3.25
2023-05-05T00:45:08.675Z,3.55
2023-05-05T00:47:35.261Z,2.33
2023-05-05T00:50:03.613Z,3.60
2023-05-05T00:52:30.023Z,2.40
2023-05-05T00:54:57.460Z,2.65
2023-05-05T00:57:24.731Z,2.00
2023-05-05T00:59:51.269Z,2.20
2023-05-05T01:02:18.868Z,2.65
2023-05-05T01:04:45.286Z,2.45
2023-05-05T01:07:27.782Z,4.65
2023-05-05T01:10:14.992Z,2.20
2023-05-05T01:12:58.636Z,2.22
2023-05-05T01:15:34.766Z,2.00
2023-05-05T01:18:35.683Z,2.67
2023-05-05T01:21:14.278Z,2.13
2023-05-05T01:24:05.482Z,2.25
2023-05-05T01:26:52.461Z,2.58
2023-05-05T01:29:46.387Z,4.55
2023-05-05T01:32:14.169Z,4.47
2023-05-05T01:34:44.142Z,3.10
2023-05-05T01:37:13.525Z,2.30
2023-05-05T01:39:40.708Z,2.90
2023-05-05T01:42:09.908Z,1.77
2023-05-05T01:44:36.657Z,2.08
2023-05-05T01:47:03.321Z,4.05
2023-05-05T01:49:29.761Z,1.90
2023-05-05T01:51:56.488Z,1.75
2023-05-05T01:54:24.122Z,3.55
2023-05-05T01:56:50.553Z,1.95
2023-05-05T01:59:17.218Z,1.95
2023-05-05T02:01:45.898Z,2.85
2023-05-05T02:04:12.830Z,2.15
2023-05-05T02:06:39.250Z,3.72
2023-05-05T02:09:05.697Z,4.20
2023-05-05T02:11:32.113Z,2.10
2023-05-05T02:13:58.832Z,5.25
2023-05-05T02:16:25.356Z,2.70
2023-05-05T02:18:51.875Z,2.22
2023-05-05T02:21:18.317Z,1.77
2023-05-05T02:23:46.990Z,1.60
2023-05-05T02:26:13.972Z,2.35
2023-05-05T02:28:42.726Z,2.50
2023-05-05T02:31:10.468Z,2.88
2023-05-05T02:33:36.951Z,2.65
2023-05-05T02:36:08.482Z,2.22
2023-05-05T02:38:34.926Z,2.85
2023-05-05T02:41:01.376Z,2.78
2023-05-05T02:43:27.870Z,2.85
2023-05-05T02:45:54.297Z,1.63
2023-05-05T02:48:21.009Z,2.72
2023-05-05T02:50:47.417Z,2.42
2023-05-05T02:53:13.874Z,1.52
2023-05-05T02:55:54.446Z,2.95
2023-05-05T02:58:27.780Z,2.05
2023-05-05T03:01:15.989Z,2.67
2023-05-05T03:03:50.293Z,2.38
2023-05-05T03:06:18.057Z,3.55
2023-05-05T03:08:49.973Z,1.98
2023-05-05T03:11:22.873Z,2.67
2023-05-05T03:13:51.675Z,2.10
2023-05-05T03:16:18.105Z,3.00
2023-05-05T03:18:45.060Z,2.13
2023-05-05T03:21:11.466Z,3.50
2023-05-05T03:23:37.952Z,1.75
2023-05-05T03:26:04.712Z,2.60
2023-05-05T03:28:31.135Z,1.55
2023-05-05T03:30:57.561Z,1.85
2023-05-05T03:33:24.010Z,2.05
2023-05-05T03:35:50.542Z,2.75
2023-05-05T03:38:17.719Z,1.63
2023-05-05T03:40:44.953Z,2.22
2023-05-05T03:43:11.761Z,1.88
2023-05-05T03:45:38.401Z,1.50
2023-05-05T03:48:05.255Z,3.10
2023-05-05T03:50:31.773Z,2.35
2023-05-05T03:52:58.227Z,3.10
2023-05-05T03:55:24.646Z,2.20
2023-05-05T03:57:51.180Z,2.38
2023-05-05T04:00:17.979Z,1.77
2023-05-05T04:02:44.553Z,1.60
2023-05-05T04:05:11.067Z,3.00
2023-05-05T04:07:37.500Z,2.88
2023-05-05T04:10:04.139Z,1.60
2023-05-05T04:12:30.636Z,1.80
2023-05-05T04:14:57.100Z,2.85
2023-05-05T04:17:23.704Z,3.03
2023-05-05T04:19:50.192Z,4.22
2023-05-05T04:22:16.607Z,3.13
2023-05-05T04:24:43.071Z,2.80
2023-05-05T04:27:09.496Z,2.35
2023-05-05T04:29:36.041Z,3.03
2023-05-05T04:32:02.521Z,2.33
2023-05-05T04:34:28.986Z,5.18
2023-05-05T04:36:55.478Z,2.10
2023-05-05T04:39:21.918Z,2.38
2023-05-05T04:41:48.371Z,3.25
2023-05-05T04:44:14.788Z,2.15
2023-05-05T04:46:41.436Z,3.47
2023-05-05T04:49:09.094Z,4.13
2023-05-05T04:51:35.569Z,2.75
2023-05-05T04:54:02.075Z,3.40
2023-05-05T04:56:31.081Z,2.58
2023-05-05T04:58:57.485Z,1.90
2023-05-05T05:01:23.949Z,3.28
2023-05-05T05:03:51.035Z,4.80
2023-05-05T05:06:17.497Z,3.17
2023-05-05T05:08:43.937Z,2.22
2023-05-05T05:11:10.477Z,2.08
2023-05-05T05:13:36.885Z,3.05
2023-05-05T05:16:03.364Z,2.63
2023-05-05T05:18:29.800Z,2.38
2023-05-05T05:20:56.290Z,3.53
2023-05-05T05:23:22.714Z,2.75
2023-05-05T05:25:49.121Z,2.13
2023-05-05T05:28:15.654Z,1.80
2023-05-05T05:30:42.079Z,2.33
2023-05-05T05:33:08.631Z,4.35
2023-05-05T05:35:35.092Z,1.90
2023-05-05T05:38:01.549Z,2.40
2023-05-05T05:40:28.592Z,2.90
2023-05-05T05:42:55.043Z,3.30
2023-05-05T05:45:21.856Z,2.65
2023-05-05T05:47:48.310Z,3.72
2023-05-05T05:50:14.949Z,2.60
2023-05-05T05:52:41.346Z,2.40
2023-05-05T05:55:08.220Z,3.10
2023-05-05T05:57:34.635Z,2.22
2023-05-05T06:00:02.121Z,1.85
2023-05-05T06:02:28.943Z,2.30
2023-05-05T06:04:55.542Z,3.65
2023-05-05T06:07:22.013Z,2.97
2023-05-05T06:09:48.413Z,4.97
2023-05-05T06:12:14.861Z,5.65
2023-05-05T06:14:41.267Z,4.03
2023-05-05T06:17:07.668Z,5.82
2023-05-05T06:19:35.047Z,3.35
2023-05-05T06:22:01.473Z,3.83
2023-05-05T06:24:27.895Z,4.70
2023-05-05T06:26:54.305Z,3.25
2023-05-05T06:29:20.948Z,3.10
2023-05-05T06:31:47.464Z,4.47
2023-05-05T06:34:13.921Z,2.88
2023-05-05T06:36:40.421Z,5.13
2023-05-05T06:39:07.098Z,6.13
2023-05-05T06:41:33.564Z,4.55
2023-05-05T06:44:01.477Z,4.07
2023-05-05T06:46:27.943Z,6.63
2023-05-05T06:48:54.442Z,4.20
2023-05-05T06:51:21.028Z,2.58
2023-05-05T06:53:47.525Z,2.47
2023-05-05T06:56:13.947Z,3.67
2023-05-05T06:58:41.104Z,3.40
2023-05-05T07:01:07.678Z,3.85
2023-05-05T07:03:34.212Z,3.22
2023-05-05T07:06:00.668Z,1.80
2023-05-05T07:08:27.073Z,3.25
2023-05-05T07:10:53.508Z,2.63
2023-05-05T07:13:19.986Z,1.70
2023-05-05T07:15:46.693Z,2.25
2023-05-05T07:18:16.369Z,3.35
2023-05-05T07:20:43.960Z,2.05
2023-05-05T07:23:11.187Z,4.50
2023-05-05T07:25:37.729Z,2.17
2023-05-05T07:28:04.403Z,3.33
2023-05-05T07:30:30.911Z,2.17
2023-05-05T07:32:57.386Z,4.75
2023-05-05T07:35:23.819Z,2.50
2023-05-05T07:37:50.844Z,5.95
2023-05-05T07:40:17.600Z,5.90
2023-05-05T07:42:44.013Z,2.17
2023-05-05T07:45:10.993Z,2.67
2023-05-05T07:47:37.448Z,2.65
2023-05-05T07:50:04.123Z,3.15
2023-05-05T07:52:45.366Z,1.95
2023-05-05T07:55:14.582Z,1.98
2023-05-05T07:57:41.121Z,7.32
2023-05-05T08:00:08.153Z,177.85
2023-05-05T08:02:34.893Z,226.95
2023-05-05T08:05:01.442Z,410.73
2023-05-05T08:07:27.874Z,69.07
2023-05-05T08:09:54.262Z,12.88
2023-05-05T08:12:20.915Z,9.68
2023-05-05T08:14:47.371Z,3.28
2023-05-05T08:17:13.983Z,2.50
2023-05-05T08:24:36.193Z,2.47
2023-05-05T08:54:16.006Z,2.67
2023-05-05T09:09:13.316Z,3.17
2023-05-05T09:27:20.393Z,4.55
2023-05-05T09:30:05.267Z,1.35
2023-05-05T09:32:47.411Z,4.05
2023-05-05T09:35:35.698Z,4.43
2023-05-05T09:38:11.366Z,4.05
2023-05-05T09:40:53.446Z,2.95
2023-05-05T09:43:23.359Z,2.80
2023-05-05T09:45:50.252Z,1.40
2023-05-05T09:48:24.708Z,1.17
2023-05-05T09:50:51.222Z,1.58
2023-05-05T09:53:18.288Z,2.20
2023-05-05T09:56:00.573Z,2.50
2023-05-05T09:58:28.185Z,4.82
2023-05-05T10:00:55.368Z,2.65
2023-05-05T10:03:21.861Z,2.33
2023-05-05T10:05:55.674Z,3.72
2023-05-05T10:08:29.320Z,3.53
2023-05-05T10:11:00.763Z,4.22
2023-05-05T10:13:27.659Z,1.73
2023-05-05T10:15:55.929Z,2.42
2023-05-05T10:18:23.229Z,3.47
2023-05-05T10:20:57.189Z,2.72
2023-05-05T10:23:24.758Z,7.63
2023-05-05T10:25:55.086Z,5.53
2023-05-05T10:28:56.683Z,1.92
2023-05-05T10:31:30.142Z,3.05
2023-05-05T10:34:03.756Z,3.53
2023-05-05T10:36:31.668Z,1.95
2023-05-05T10:38:58.209Z,3.53
2023-05-05T10:41:25.037Z,3.85
2023-05-05T10:43:51.756Z,1.80
2023-05-05T10:46:18.219Z,3.22
2023-05-05T10:48:51.194Z,1.50
2023-05-05T10:51:53.412Z,2.60
2023-05-05T10:54:24.964Z,2.08
2023-05-05T10:56:51.595Z,2.22
2023-05-05T10:59:39.525Z,2.40
2023-05-05T11:02:30.341Z,2.72
2023-05-05T11:05:15.190Z,1.58
2023-05-05T11:07:42.266Z,2.55
2023-05-05T11:10:09.900Z,3.05
2023-05-05T11:13:00.021Z,2.80
2023-05-05T11:15:26.497Z,1.65
2023-05-05T11:17:53.688Z,2.22
2023-05-05T11:20:35.836Z,4.45
2023-05-05T11:23:02.126Z,1.98
2023-05-05T11:25:34.493Z,2.97
2023-05-05T11:28:07.007Z,2.35
2023-05-05T11:30:33.467Z,1.40
2023-05-05T11:33:28.864Z,1.63
2023-05-05T11:35:55.919Z,2.58
2023-05-05T11:38:56.876Z,2.55
2023-05-05T11:41:32.365Z,3.85
2023-05-05T11:44:20.987Z,1.95
2023-05-05T11:46:53.456Z,2.05
2023-05-05T11:49:39.180Z,2.83
2023-05-05T11:52:07.706Z,1.80
2023-05-05T11:54:38.561Z,1.67
2023-05-05T11:57:07.148Z,4.20
2023-05-05T11:59:34.133Z,2.90
2023-05-05T12:02:00.582Z,3.22
2023-05-05T12:04:27.197Z,2.38
2023-05-05T12:06:53.653Z,1.67
2023-05-05T12:09:21.676Z,3.22
2023-05-05T12:11:57.978Z,3.35
2023-05-05T12:14:24.938Z,2.15
2023-05-05T12:16:58.279Z,2.03
2023-05-05T12:19:29.647Z,4.43
2023-05-05T12:21:56.589Z,2.38
2023-05-05T12:24:23.027Z,3.30
2023-05-05T12:26:49.445Z,1.60
2023-05-05T12:29:25.966Z,2.92
2023-05-05T12:31:52.470Z,1.70
2023-05-05T12:34:18.900Z,5.95
2023-05-05T12:36:45.353Z,2.65
2023-05-05T12:39:12.015Z,1.85
2023-05-05T12:41:38.421Z,1.65
2023-05-05T12:44:05.113Z,4.88
2023-05-05T12:46:31.899Z,2.70
2023-05-05T12:49:05.515Z,3.17
2023-05-05T12:51:35.889Z,3.60
2023-05-05T12:54:03.316Z,2.13
2023-05-05T12:56:39.647Z,2.83
2023-05-05T12:59:29.190Z,2.63
2023-05-05T13:01:56.591Z,3.45
2023-05-05T13:04:24.203Z,3.92
2023-05-05T13:07:07.435Z,2.83
2023-05-05T13:09:34.594Z,3.08
2023-05-05T13:12:03.107Z,4.63
2023-05-05T13:14:30.742Z,2.45
2023-05-05T13:16:57.355Z,1.50
2023-05-05T13:19:27.577Z,2.33
2023-05-05T13:21:57.401Z,2.83
2023-05-05T13:24:31.643Z,2.95
2023-05-05T13:27:04.963Z,2.63
2023-05-05T13:29:31.867Z,2.03
2023-05-05T13:31:58.362Z,2.05
2023-05-05T13:34:24.776Z,2.78
2023-05-05T13:36:51.798Z,4.07
2023-05-05T13:39:18.391Z,2.80
2023-05-05T13:41:45.298Z,2.25
2023-05-05T13:44:12.189Z,2.35
2023-05-05T13:46:38.659Z,1.85
2023-05-05T13:49:05.089Z,2.63
2023-05-05T13:51:31.526Z,2.78
2023-05-05T13:53:59.040Z,3.00
2023-05-05T13:56:27.545Z,3.92
2023-05-05T13:58:54.255Z,1.98
2023-05-05T14:01:20.768Z,2.80
2023-05-05T14:03:47.269Z,4.72
2023-05-05T14:06:13.738Z,4.22
2023-05-05T14:08:40.167Z,3.60
2023-05-05T14:11:06.644Z,5.63
2023-05-05T14:13:33.093Z,4.47
2023-05-05T14:15:59.622Z,3.40
2023-05-05T14:18:26.124Z,3.17
2023-05-05T14:20:52.663Z,5.43
2023-05-05T14:23:19.208Z,2.58
2023-05-05T14:25:45.657Z,3.03
2023-05-05T14:28:12.092Z,6.07
2023-05-05T14:30:39.411Z,2.75
2023-05-05T14:33:05.851Z,4.45
2023-05-05T14:35:32.334Z,3.35
2023-05-05T14:37:58.770Z,3.47
2023-05-05T14:40:25.231Z,4.97
2023-05-05T14:42:51.716Z,5.22
2023-05-05T14:45:18.132Z,3.17
2023-05-05T14:47:44.589Z,3.63
2023-05-05T14:50:11.142Z,3.08
2023-05-05T14:52:39.184Z,3.03
2023-05-05T14:55:06.743Z,4.05
2023-05-05T14:57:33.264Z,6.18
2023-05-05T14:59:59.687Z,5.60
2023-05-05T15:02:26.172Z,3.35
2023-05-05T15:04:53.102Z,4.05
2023-05-05T15:07:20.463Z,4.97
2023-05-05T15:09:46.930Z,3.53
2023-05-05T15:12:13.364Z,3.97
2023-05-05T15:14:39.860Z,3.70
2023-05-05T15:17:06.487Z,4.70
2023-05-05T15:19:32.933Z,2.60
2023-05-05T15:21:59.400Z,5.78
2023-05-05T15:24:26.191Z,3.42
2023-05-05T15:26:52.638Z,2.50
2023-05-05T15:29:19.070Z,3.40
2023-05-05T15:31:45.573Z,2.30
2023-05-05T15:34:12.031Z,1.95
2023-05-05T15:36:38.455Z,1.98
2023-05-05T15:39:04.942Z,1.45
2023-05-05T15:41:33.526Z,2.38
2023-05-05T15:44:00.659Z,1.97
2023-05-05T15:46:27.094Z,1.70
2023-05-05T15:48:53.549Z,1.88
2023-05-05T15:51:20.029Z,3.00
2023-05-05T15:53:47.124Z,3.63
2023-05-05T15:56:13.597Z,2.83
2023-05-05T15:58:40.027Z,3.78
2023-05-05T16:01:06.510Z,2.08
2023-05-05T16:03:33.103Z,3.05
2023-05-05T16:05:59.612Z,3.22
2023-05-05T16:08:26.048Z,2.13
2023-05-05T16:10:52.588Z,3.55
2023-05-05T16:13:19.185Z,2.05
2023-05-05T16:15:46.213Z,1.98
2023-05-05T16:18:12.674Z,2.88
2023-05-05T16:20:39.109Z,4.43
2023-05-05T16:23:05.598Z,2.22
2023-05-05T16:25:31.991Z,2.33
2023-05-05T16:28:00.030Z,3.28
2023-05-05T16:30:26.697Z,2.75
2023-05-05T16:32:54.322Z,5.75
2023-05-05T16:35:21.041Z,2.72
2023-05-05T16:37:47.472Z,2.35
2023-05-05T16:40:13.991Z,2.30
2023-05-05T16:42:41.883Z,2.38
2023-05-05T16:45:09.912Z,3.08
2023-05-05T16:47:37.172Z,2.17
2023-05-05T16:50:03.922Z,5.18
2023-05-05T16:52:30.450Z,2.20
2023-05-05T16:54:57.187Z,3.97
2023-05-05T16:57:23.709Z,2.53
2023-05-05T16:59:50.240Z,3.58
2023-05-05T17:02:16.658Z,2.08
2023-05-05T17:04:43.056Z,2.60
2023-05-05T17:07:09.458Z,3.45
2023-05-05T17:09:35.922Z,2.45
2023-05-05T17:12:04.000Z,4.55
2023-05-05T17:14:30.699Z,3.38
2023-05-05T17:16:57.128Z,3.78
2023-05-05T17:19:23.577Z,2.95
2023-05-05T17:21:50.019Z,2.72
2023-05-05T17:24:16.450Z,4.65
2023-05-05T17:26:42.863Z,3.97
2023-05-05T17:29:10.420Z,4.07
2023-05-05T17:31:38.805Z,2.45
2023-05-05T17:34:05.281Z,3.55
2023-05-05T17:36:31.733Z,5.32
2023-05-05T17:38:58.133Z,3.05
2023-05-05T17:41:25.579Z,2.30
2023-05-05T17:43:51.985Z,3.05
2023-05-05T17:46:18.414Z,2.50
2023-05-05T17:48:44.954Z,2.78
2023-05-05T17:51:11.399Z,2.30
2023-05-05T17:53:38.429Z,3.58
2023-05-05T17:56:07.199Z,2.45
2023-05-05T17:58:35.082Z,3.80
2023-05-05T18:01:01.525Z,2.20
2023-05-05T18:03:28.300Z,4.05
2023-05-05T18:05:54.912Z,3.45
2023-05-05T18:08:21.319Z,3.47
2023-05-05T18:10:47.861Z,4.05
2023-05-05T18:13:14.403Z,2.75
2023-05-05T18:15:41.069Z,3.97
2023-05-05T18:18:07.608Z,2.35
2023-05-05T18:20:34.171Z,3.35
2023-05-05T18:23:00.622Z,3.20
2023-05-05T18:25:27.098Z,5.13
2023-05-05T18:27:53.547Z,3.03
2023-05-05T18:30:19.983Z,3.28
2023-05-05T18:32:46.470Z,4.30
2023-05-05T18:35:13.017Z,4.85
2023-05-05T18:37:39.453Z,2.97
2023-05-05T18:40:06.964Z,3.10
2023-05-05T18:42:33.406Z,3.25
2023-05-05T18:44:59.804Z,3.40
2023-05-05T18:47:26.337Z,4.80
2023-05-05T18:49:52.831Z,2.42
2023-05-05T18:52:19.232Z,3.03
2023-05-05T18:54:46.027Z,2.80
2023-05-05T18:57:12.430Z,3.00
2023-05-05T18:59:38.878Z,2.75
2023-05-05T19:02:06.362Z,2.75
2023-05-05T19:04:36.429Z,3.08
2023-05-05T19:07:02.908Z,3.05
2023-05-05T19:09:32.290Z,2.67
2023-05-05T19:11:58.897Z,3.08
2023-05-05T19:14:25.490Z,4.70
2023-05-05T19:16:52.216Z,4.50
2023-05-05T19:19:18.672Z,3.30
2023-05-05T19:21:45.327Z,3.20
2023-05-05T19:24:11.768Z,3.22
2023-05-05T19:26:38.230Z,3.65
2023-05-05T19:29:04.923Z,3.60
2023-05-05T19:31:31.905Z,2.90
2023-05-05T19:34:00.196Z,3.13
2023-05-05T19:36:27.608Z,2.35
2023-05-05T19:38:54.907Z,5.00
2023-05-05T19:41:21.362Z,3.65
2023-05-05T19:43:47.825Z,3.10
2023-05-05T19:46:14.461Z,4.40
2023-05-05T19:48:41.261Z,3.85
2023-05-05T19:51:07.744Z,2.88
2023-05-05T19:53:34.167Z,2.90
2023-05-05T19:56:00.975Z,3.22
2023-05-05T19:58:27.413Z,3.75
2023-05-05T20:00:53.816Z,2.67
2023-05-05T20:03:21.077Z,3.80
2023-05-05T20:05:47.621Z,3.97
2023-05-05T20:08:14.213Z,4.50
2023-05-05T20:10:40.683Z,2.90
2023-05-05T20:13:07.242Z,3.60
2023-05-05T20:15:33.723Z,3.03
2023-05-05T20:18:00.259Z,5.32
2023-05-05T20:20:26.727Z,3.47
2023-05-05T20:22:53.223Z,3.65
2023-05-05T20:25:19.679Z,4.00
2023-05-05T20:27:46.219Z,3.22
2023-05-05T20:30:12.917Z,3.15
2023-05-05T20:32:39.438Z,2.95
2023-05-05T20:35:06.462Z,4.68
2023-05-05T20:37:33.075Z,4.70
2023-05-05T20:39:59.506Z,3.45
2023-05-05T20:42:27.503Z,3.22
2023-05-05T20:44:53.938Z,2.92
2023-05-05T20:47:20.577Z,7.18
2023-05-05T20:49:46.998Z,3.47
2023-05-05T20:52:13.439Z,3.15
2023-05-05T20:54:39.867Z,4.55
2023-05-05T20:57:07.021Z,4.80
2023-05-05T20:59:33.466Z,3.38
2023-05-05T21:02:00.573Z,3.42
2023-05-05T21:04:27.090Z,4.15
2023-05-05T21:06:53.496Z,3.00
2023-05-05T21:09:21.432Z,6.25
2023-05-05T21:11:48.745Z,4.47
2023-05-05T21:14:15.418Z,3.20
2023-05-05T21:16:42.513Z,6.35
2023-05-05T21:19:09.115Z,3.13
2023-05-05T21:21:35.526Z,4.38
2023-05-05T21:24:02.053Z,2.78
2023-05-05T21:26:28.510Z,3.85
2023-05-05T21:28:54.990Z,3.78
2023-05-05T21:31:22.656Z,6.57
2023-05-05T21:33:49.425Z,4.45
2023-05-05T21:36:17.494Z,4.13
2023-05-05T21:38:43.937Z,4.18
2023-05-05T21:41:10.378Z,4.43
2023-05-05T21:43:36.855Z,3.70
2023-05-05T21:46:04.413Z,3.95
2023-05-05T21:48:33.721Z,2.92
2023-05-05T21:51:00.841Z,4.10
2023-05-05T21:53:27.270Z,3.42
2023-05-05T21:55:53.697Z,4.63
2023-05-05T21:58:20.328Z,3.47
2023-05-05T22:00:49.348Z,4.60
2023-05-05T22:03:15.862Z,4.65
2023-05-05T22:05:42.354Z,4.10
2023-05-05T22:08:08.763Z,4.78
2023-05-05T22:10:35.147Z,3.40
2023-05-05T22:13:01.701Z,3.67
2023-05-05T22:15:32.796Z,5.15
2023-05-05T22:18:06.425Z,4.78
2023-05-05T22:20:32.898Z,4.45
2023-05-05T22:22:59.342Z,3.10
2023-05-05T22:25:26.308Z,4.65
2023-05-05T22:27:52.775Z,4.85
2023-05-05T22:30:19.289Z,3.95
2023-05-05T22:32:46.295Z,3.83
2023-05-05T22:35:13.077Z,4.30
2023-05-05T22:37:39.572Z,4.47
2023-05-05T22:40:09.449Z,3.40
2023-05-05T22:42:36.057Z,4.28
2023-05-05T22:45:02.499Z,5.57
2023-05-05T22:47:28.924Z,4.90
2023-05-05T22:49:55.416Z,3.55
2023-05-05T22:52:21.838Z,3.20
2023-05-05T22:54:48.243Z,5.43
2023-05-05T22:57:14.642Z,4.07
2023-05-05T22:59:41.071Z,3.53
2023-05-05T23:02:07.571Z,5.30
2023-05-05T23:04:34.095Z,6.00
2023-05-05T23:07:00.658Z,4.22
2023-05-05T23:09:27.108Z,5.72
2023-05-05T23:11:53.550Z,4.65
2023-05-05T23:14:20.128Z,5.65
2023-05-05T23:16:46.617Z,4.13
2023-05-05T23:19:13.480Z,3.30
2023-05-05T23:21:52.115Z,6.15
2023-05-05T23:24:19.924Z,4.50
2023-05-05T23:26:46.351Z,3.55
2023-05-05T23:29:12.772Z,5.30
2023-05-05T23:31:39.204Z,3.60
2023-05-05T23:34:05.693Z,4.55
2023-05-05T23:36:32.118Z,3.50
2023-05-05T23:38:58.522Z,3.72
2023-05-05T23:41:24.960Z,3.00
2023-05-05T23:43:51.347Z,4.18
2023-05-05T23:46:17.894Z,3.90
2023-05-05T23:48:44.333Z,3.88
2023-05-05T23:51:10.751Z,3.95
2023-05-05T23:53:37.171Z,3.88
2023-05-05T23:56:03.608Z,3.55
2023-05-05T23:58:30.116Z,9.68
